sensor_id;sensor_type;location;lat;lon;timestamp;temperature;humidity
69162;DHT22;56269;51.738;21.652;2023-04-24T00:00:46;9.32;78.07
69162;DHT22;56269;51.738;21.652;2023-04-24T00:03:24;9.21;78.05
69162;DHT22;56269;51.738;21.652;2023-04-24T00:05:51;9.13;78.24
69162;DHT22;56269;51.738;21.652;2023-04-24T00:08:18;9.06;78.38
69162;DHT22;56269;51.738;21.652;2023-04-24T00:10:44;8.96;79.44
69162;DHT22;56269;51.738;21.652;2023-04-24T00:13:10;8.93;78.84
69162;DHT22;56269;51.738;21.652;2023-04-24T00:15:36;8.93;79.01
69162;DHT22;56269;51.738;21.652;2023-04-24T00:18:02;8.91;78.89
69162;DHT22;56269;51.738;21.652;2023-04-24T00:20:29;9.16;78.52
69162;DHT22;56269;51.738;21.652;2023-04-24T00:22:55;9.27;78.39
69162;DHT22;56269;51.738;21.652;2023-04-24T00:25:21;9.42;78.40
69162;DHT22;56269;51.738;21.652;2023-04-24T00:27:47;9.57;78.00
69162;DHT22;56269;51.738;21.652;2023-04-24T00:30:14;9.39;78.95
69162;DHT22;56269;51.738;21.652;2023-04-24T00:32:40;9.24;79.64
69162;DHT22;56269;51.738;21.652;2023-04-24T00:35:06;9.01;80.34
69162;DHT22;56269;51.738;21.652;2023-04-24T00:37:32;8.83;81.39
69162;DHT22;56269;51.738;21.652;2023-04-24T00:39:59;8.59;82.71
69162;DHT22;56269;51.738;21.652;2023-04-24T00:42:25;8.52;81.49
69162;DHT22;56269;51.738;21.652;2023-04-24T00:44:51;8.46;81.86
69162;DHT22;56269;51.738;21.652;2023-04-24T00:47:19;8.36;82.17
69162;DHT22;56269;51.738;21.652;2023-04-24T00:49:45;8.21;83.52
69162;DHT22;56269;51.738;21.652;2023-04-24T00:52:11;8.20;83.00
69162;DHT22;56269;51.738;21.652;2023-04-24T00:54:38;8.52;81.44
69162;DHT22;56269;51.738;21.652;2023-04-24T00:57:04;8.72;80.70
69162;DHT22;56269;51.738;21.652;2023-04-24T00:59:33;8.91;80.15
69162;DHT22;56269;51.738;21.652;2023-04-24T01:01:59;8.88;79.66
69162;DHT22;56269;51.738;21.652;2023-04-24T01:04:26;8.63;81.86
69162;DHT22;56269;51.738;21.652;2023-04-24T01:06:54;8.59;82.67
69162;DHT22;56269;51.738;21.652;2023-04-24T01:09:23;8.48;81.59
69162;DHT22;56269;51.738;21.652;2023-04-24T01:11:49;8.28;84.76
69162;DHT22;56269;51.738;21.652;2023-04-24T01:14:15;8.04;85.27
69162;DHT22;56269;51.738;21.652;2023-04-24T01:16:41;7.90;85.90
69162;DHT22;56269;51.738;21.652;2023-04-24T01:19:10;7.81;86.54
69162;DHT22;56269;51.738;21.652;2023-04-24T01:21:37;7.73;87.43
69162;DHT22;56269;51.738;21.652;2023-04-24T01:24:05;7.63;87.50
69162;DHT22;56269;51.738;21.652;2023-04-24T01:26:31;7.56;88.68
69162;DHT22;56269;51.738;21.652;2023-04-24T01:28:58;7.52;89.25
69162;DHT22;56269;51.738;21.652;2023-04-24T01:31:24;7.39;88.52
69162;DHT22;56269;51.738;21.652;2023-04-24T01:33:51;7.42;89.42
69162;DHT22;56269;51.738;21.652;2023-04-24T01:36:18;7.64;86.97
69162;DHT22;56269;51.738;21.652;2023-04-24T01:38:45;7.67;86.43
69162;DHT22;56269;51.738;21.652;2023-04-24T01:41:11;7.49;90.26
69162;DHT22;56269;51.738;21.652;2023-04-24T01:43:40;7.34;89.21
69162;DHT22;56269;51.738;21.652;2023-04-24T01:46:06;7.33;89.01
69162;DHT22;56269;51.738;21.652;2023-04-24T01:48:33;7.54;86.30
69162;DHT22;56269;51.738;21.652;2023-04-24T01:50:59;7.70;85.35
69162;DHT22;56269;51.738;21.652;2023-04-24T01:53:25;7.73;85.51
69162;DHT22;56269;51.738;21.652;2023-04-24T01:55:51;7.78;86.86
69162;DHT22;56269;51.738;21.652;2023-04-24T01:58:18;7.85;86.31
69162;DHT22;56269;51.738;21.652;2023-04-24T02:00:44;8.24;84.45
69162;DHT22;56269;51.738;21.652;2023-04-24T02:03:10;8.22;84.53
69162;DHT22;56269;51.738;21.652;2023-04-24T02:05:37;8.20;85.09
69162;DHT22;56269;51.738;21.652;2023-04-24T02:08:03;8.45;83.05
69162;DHT22;56269;51.738;21.652;2023-04-24T02:10:29;8.63;82.67
69162;DHT22;56269;51.738;21.652;2023-04-24T02:12:55;8.76;82.15
69162;DHT22;56269;51.738;21.652;2023-04-24T02:15:21;8.79;82.32
69162;DHT22;56269;51.738;21.652;2023-04-24T02:17:48;8.80;83.03
69162;DHT22;56269;51.738;21.652;2023-04-24T02:20:14;8.77;83.20
69162;DHT22;56269;51.738;21.652;2023-04-24T02:22:40;8.65;83.59
69162;DHT22;56269;51.738;21.652;2023-04-24T02:25:06;8.66;83.63
69162;DHT22;56269;51.738;21.652;2023-04-24T02:27:33;8.67;83.95
69162;DHT22;56269;51.738;21.652;2023-04-24T02:29:59;8.70;83.34
69162;DHT22;56269;51.738;21.652;2023-04-24T02:32:26;8.66;83.69
69162;DHT22;56269;51.738;21.652;2023-04-24T02:34:52;8.69;82.86
69162;DHT22;56269;51.738;21.652;2023-04-24T02:37:18;8.49;84.09
69162;DHT22;56269;51.738;21.652;2023-04-24T02:39:44;8.39;84.32
69162;DHT22;56269;51.738;21.652;2023-04-24T02:42:11;8.49;84.20
69162;DHT22;56269;51.738;21.652;2023-04-24T02:44:37;8.56;83.99
69162;DHT22;56269;51.738;21.652;2023-04-24T02:47:03;8.79;82.89
69162;DHT22;56269;51.738;21.652;2023-04-24T02:49:29;8.73;83.23
69162;DHT22;56269;51.738;21.652;2023-04-24T02:51:55;8.81;82.75
69162;DHT22;56269;51.738;21.652;2023-04-24T02:54:21;8.72;83.00
69162;DHT22;56269;51.738;21.652;2023-04-24T02:56:48;8.65;83.05
69162;DHT22;56269;51.738;21.652;2023-04-24T02:59:13;8.59;83.29
69162;DHT22;56269;51.738;21.652;2023-04-24T03:01:40;8.49;83.67
69162;DHT22;56269;51.738;21.652;2023-04-24T03:04:06;8.29;84.56
69162;DHT22;56269;51.738;21.652;2023-04-24T03:06:32;8.08;85.20
69162;DHT22;56269;51.738;21.652;2023-04-24T03:09:01;7.90;85.78
69162;DHT22;56269;51.738;21.652;2023-04-24T03:11:27;7.85;86.06
69162;DHT22;56269;51.738;21.652;2023-04-24T03:13:53;7.84;86.65
69162;DHT22;56269;51.738;21.652;2023-04-24T03:16:19;7.74;87.22
69162;DHT22;56269;51.738;21.652;2023-04-24T03:18:45;7.84;86.58
69162;DHT22;56269;51.738;21.652;2023-04-24T03:21:12;7.90;86.35
69162;DHT22;56269;51.738;21.652;2023-04-24T03:23:38;8.05;85.42
69162;DHT22;56269;51.738;21.652;2023-04-24T03:26:04;8.22;84.66
69162;DHT22;56269;51.738;21.652;2023-04-24T03:28:31;8.38;83.89
69162;DHT22;56269;51.738;21.652;2023-04-24T03:30:57;8.53;83.11
69162;DHT22;56269;51.738;21.652;2023-04-24T03:33:23;8.59;83.05
69162;DHT22;56269;51.738;21.652;2023-04-24T03:35:49;8.60;82.85
69162;DHT22;56269;51.738;21.652;2023-04-24T03:38:15;8.63;82.95
69162;DHT22;56269;51.738;21.652;2023-04-24T03:40:42;8.67;82.73
69162;DHT22;56269;51.738;21.652;2023-04-24T03:43:07;8.66;82.71
69162;DHT22;56269;51.738;21.652;2023-04-24T03:45:34;8.59;83.05
69162;DHT22;56269;51.738;21.652;2023-04-24T03:48:00;8.63;82.92
69162;DHT22;56269;51.738;21.652;2023-04-24T03:50:26;8.67;82.48
69162;DHT22;56269;51.738;21.652;2023-04-24T03:52:54;8.77;82.50
69162;DHT22;56269;51.738;21.652;2023-04-24T03:55:21;8.81;82.24
69162;DHT22;56269;51.738;21.652;2023-04-24T03:57:47;8.83;82.18
69162;DHT22;56269;51.738;21.652;2023-04-24T04:00:13;8.90;82.15
69162;DHT22;56269;51.738;21.652;2023-04-24T04:02:40;8.88;82.37
69162;DHT22;56269;51.738;21.652;2023-04-24T04:05:07;8.93;82.05
69162;DHT22;56269;51.738;21.652;2023-04-24T04:07:33;8.93;82.24
69162;DHT22;56269;51.738;21.652;2023-04-24T04:10:00;8.97;82.31
69162;DHT22;56269;51.738;21.652;2023-04-24T04:12:26;8.99;82.34
69162;DHT22;56269;51.738;21.652;2023-04-24T04:14:52;8.96;82.83
69162;DHT22;56269;51.738;21.652;2023-04-24T04:17:18;9.06;82.73
69162;DHT22;56269;51.738;21.652;2023-04-24T04:19:44;9.21;81.93
69162;DHT22;56269;51.738;21.652;2023-04-24T04:22:10;9.41;81.11
69162;DHT22;56269;51.738;21.652;2023-04-24T04:24:37;9.52;81.15
69162;DHT22;56269;51.738;21.652;2023-04-24T04:27:04;9.54;81.32
69162;DHT22;56269;51.738;21.652;2023-04-24T04:29:31;9.61;81.64
69162;DHT22;56269;51.738;21.652;2023-04-24T04:31:57;9.77;80.74
69162;DHT22;56269;51.738;21.652;2023-04-24T04:34:24;9.90;79.91
69162;DHT22;56269;51.738;21.652;2023-04-24T04:36:50;9.89;80.96
69162;DHT22;56269;51.738;21.652;2023-04-24T04:39:16;9.93;80.34
69162;DHT22;56269;51.738;21.652;2023-04-24T04:41:44;10.03;80.20
69162;DHT22;56269;51.738;21.652;2023-04-24T04:44:12;10.13;79.77
69162;DHT22;56269;51.738;21.652;2023-04-24T04:46:39;10.26;79.83
69162;DHT22;56269;51.738;21.652;2023-04-24T04:49:09;10.47;78.91
69162;DHT22;56269;51.738;21.652;2023-04-24T04:51:36;10.65;77.83
69162;DHT22;56269;51.738;21.652;2023-04-24T04:54:02;10.82;78.11
69162;DHT22;56269;51.738;21.652;2023-04-24T04:56:28;11.15;76.49
69162;DHT22;56269;51.738;21.652;2023-04-24T04:58:55;11.42;75.81
69162;DHT22;56269;51.738;21.652;2023-04-24T05:01:21;11.72;74.24
69162;DHT22;56269;51.738;21.652;2023-04-24T05:03:49;11.97;74.74
69162;DHT22;56269;51.738;21.652;2023-04-24T05:06:15;12.20;73.89
69162;DHT22;56269;51.738;21.652;2023-04-24T05:08:41;12.40;72.72
69162;DHT22;56269;51.738;21.652;2023-04-24T05:11:07;12.61;72.68
69162;DHT22;56269;51.738;21.652;2023-04-24T05:13:34;12.72;70.91
69162;DHT22;56269;51.738;21.652;2023-04-24T05:16:00;12.92;70.18
69162;DHT22;56269;51.738;21.652;2023-04-24T05:18:26;12.93;70.48
69162;DHT22;56269;51.738;21.652;2023-04-24T05:20:52;13.10;70.62
69162;DHT22;56269;51.738;21.652;2023-04-24T05:23:18;13.07;69.14
69162;DHT22;56269;51.738;21.652;2023-04-24T05:25:44;13.16;70.23
69162;DHT22;56269;51.738;21.652;2023-04-24T05:28:12;13.16;68.17
69162;DHT22;56269;51.738;21.652;2023-04-24T05:30:38;13.30;68.95
69162;DHT22;56269;51.738;21.652;2023-04-24T05:33:04;13.37;68.64
69162;DHT22;56269;51.738;21.652;2023-04-24T05:35:30;13.56;67.71
69162;DHT22;56269;51.738;21.652;2023-04-24T05:37:57;13.73;67.70
69162;DHT22;56269;51.738;21.652;2023-04-24T05:40:23;13.79;67.31
69162;DHT22;56269;51.738;21.652;2023-04-24T05:42:49;13.85;67.75
69162;DHT22;56269;51.738;21.652;2023-04-24T05:45:15;14.04;66.72
69162;DHT22;56269;51.738;21.652;2023-04-24T05:47:43;14.14;66.22
69162;DHT22;56269;51.738;21.652;2023-04-24T05:50:10;14.22;65.66
69162;DHT22;56269;51.738;21.652;2023-04-24T05:52:36;14.52;65.01
69162;DHT22;56269;51.738;21.652;2023-04-24T05:55:03;14.63;64.93
69162;DHT22;56269;51.738;21.652;2023-04-24T05:57:29;14.70;65.67
69162;DHT22;56269;51.738;21.652;2023-04-24T05:59:56;14.77;64.06
69162;DHT22;56269;51.738;21.652;2023-04-24T06:02:22;15.12;64.68
69162;DHT22;56269;51.738;21.652;2023-04-24T06:04:48;15.14;64.16
69162;DHT22;56269;51.738;21.652;2023-04-24T06:07:14;15.31;64.15
69162;DHT22;56269;51.738;21.652;2023-04-24T06:09:41;15.40;63.50
69162;DHT22;56269;51.738;21.652;2023-04-24T06:12:07;15.44;62.13
69162;DHT22;56269;51.738;21.652;2023-04-24T06:14:34;15.42;61.77
69162;DHT22;56269;51.738;21.652;2023-04-24T06:17:00;15.44;62.25
69162;DHT22;56269;51.738;21.652;2023-04-24T06:19:26;15.50;62.26
69162;DHT22;56269;51.738;21.652;2023-04-24T06:21:53;15.85;63.19
69162;DHT22;56269;51.738;21.652;2023-04-24T06:24:19;15.75;61.00
69162;DHT22;56269;51.738;21.652;2023-04-24T06:26:45;15.88;60.80
69162;DHT22;56269;51.738;21.652;2023-04-24T06:29:11;16.05;60.10
69162;DHT22;56269;51.738;21.652;2023-04-24T06:31:40;16.50;59.90
69162;DHT22;56269;51.738;21.652;2023-04-24T06:34:06;16.36;59.23
69162;DHT22;56269;51.738;21.652;2023-04-24T06:36:32;16.40;60.19
69162;DHT22;56269;51.738;21.652;2023-04-24T06:39:00;16.64;59.75
69162;DHT22;56269;51.738;21.652;2023-04-24T06:41:26;16.88;60.71
69162;DHT22;56269;51.738;21.652;2023-04-24T06:43:52;17.05;58.46
69162;DHT22;56269;51.738;21.652;2023-04-24T06:46:19;16.96;59.31
69162;DHT22;56269;51.738;21.652;2023-04-24T06:48:47;17.16;60.42
69162;DHT22;56269;51.738;21.652;2023-04-24T06:51:14;17.29;59.16
69162;DHT22;56269;51.738;21.652;2023-04-24T06:53:40;17.24;57.63
69162;DHT22;56269;51.738;21.652;2023-04-24T06:56:06;17.26;57.83
69162;DHT22;56269;51.738;21.652;2023-04-24T06:58:32;17.04;57.86
69162;DHT22;56269;51.738;21.652;2023-04-24T07:01:00;17.43;57.47
69162;DHT22;56269;51.738;21.652;2023-04-24T07:03:26;17.83;59.44
69162;DHT22;56269;51.738;21.652;2023-04-24T07:05:54;18.01;57.35
69162;DHT22;56269;51.738;21.652;2023-04-24T07:08:20;18.04;57.24
69162;DHT22;56269;51.738;21.652;2023-04-24T07:10:48;17.91;57.02
69162;DHT22;56269;51.738;21.652;2023-04-24T07:13:15;17.79;57.23
69162;DHT22;56269;51.738;21.652;2023-04-24T07:15:41;17.86;57.10
69162;DHT22;56269;51.738;21.652;2023-04-24T07:18:08;18.13;58.24
69162;DHT22;56269;51.738;21.652;2023-04-24T07:20:34;18.10;57.19
69162;DHT22;56269;51.738;21.652;2023-04-24T07:23:01;18.18;58.19
69162;DHT22;56269;51.738;21.652;2023-04-24T07:25:27;17.98;57.50
69162;DHT22;56269;51.738;21.652;2023-04-24T07:27:54;18.06;57.78
69162;DHT22;56269;51.738;21.652;2023-04-24T07:30:20;18.16;57.84
69162;DHT22;56269;51.738;21.652;2023-04-24T07:32:46;18.04;56.25
69162;DHT22;56269;51.738;21.652;2023-04-24T07:35:12;18.52;58.18
69162;DHT22;56269;51.738;21.652;2023-04-24T07:37:39;18.41;58.02
69162;DHT22;56269;51.738;21.652;2023-04-24T07:40:06;18.20;56.17
69162;DHT22;56269;51.738;21.652;2023-04-24T07:42:32;18.67;55.62
69162;DHT22;56269;51.738;21.652;2023-04-24T07:45:00;19.05;57.46
69162;DHT22;56269;51.738;21.652;2023-04-24T07:47:26;19.24;57.07
69162;DHT22;56269;51.738;21.652;2023-04-24T07:49:53;18.85;55.82
69162;DHT22;56269;51.738;21.652;2023-04-24T07:52:19;19.06;56.02
69162;DHT22;56269;51.738;21.652;2023-04-24T07:54:45;19.30;56.47
69162;DHT22;56269;51.738;21.652;2023-04-24T07:57:11;19.18;54.82
69162;DHT22;56269;51.738;21.652;2023-04-24T07:59:38;19.59;55.35
69162;DHT22;56269;51.738;21.652;2023-04-24T08:02:04;19.34;53.73
69162;DHT22;56269;51.738;21.652;2023-04-24T08:04:32;19.33;54.52
69162;DHT22;56269;51.738;21.652;2023-04-24T08:06:58;19.31;54.29
69162;DHT22;56269;51.738;21.652;2023-04-24T08:09:24;19.30;54.81
69162;DHT22;56269;51.738;21.652;2023-04-24T08:11:50;19.60;54.44
69162;DHT22;56269;51.738;21.652;2023-04-24T08:14:17;19.66;56.28
69162;DHT22;56269;51.738;21.652;2023-04-24T08:16:43;19.57;54.49
69162;DHT22;56269;51.738;21.652;2023-04-24T08:19:09;19.90;55.27
69162;DHT22;56269;51.738;21.652;2023-04-24T08:21:35;20.56;54.55
69162;DHT22;56269;51.738;21.652;2023-04-24T08:24:01;19.82;52.58
69162;DHT22;56269;51.738;21.652;2023-04-24T08:26:31;20.02;53.69
69162;DHT22;56269;51.738;21.652;2023-04-24T08:28:57;20.18;54.05
69162;DHT22;56269;51.738;21.652;2023-04-24T08:31:23;20.04;52.81
69162;DHT22;56269;51.738;21.652;2023-04-24T08:33:52;19.94;53.11
69162;DHT22;56269;51.738;21.652;2023-04-24T08:36:18;20.29;54.06
69162;DHT22;56269;51.738;21.652;2023-04-24T08:38:44;20.41;52.02
69162;DHT22;56269;51.738;21.652;2023-04-24T08:41:14;20.36;52.14
69162;DHT22;56269;51.738;21.652;2023-04-24T08:43:42;20.69;51.97
69162;DHT22;56269;51.738;21.652;2023-04-24T08:46:08;20.36;51.23
69162;DHT22;56269;51.738;21.652;2023-04-24T08:48:36;20.39;50.79
69162;DHT22;56269;51.738;21.652;2023-04-24T08:51:07;20.14;50.86
69162;DHT22;56269;51.738;21.652;2023-04-24T08:53:35;20.17;50.22
69162;DHT22;56269;51.738;21.652;2023-04-24T08:56:02;20.73;51.60
69162;DHT22;56269;51.738;21.652;2023-04-24T08:58:29;20.73;51.41
69162;DHT22;56269;51.738;21.652;2023-04-24T09:00:57;20.75;49.90
69162;DHT22;56269;51.738;21.652;2023-04-24T09:03:24;21.11;50.81
69162;DHT22;56269;51.738;21.652;2023-04-24T09:05:50;20.97;49.92
69162;DHT22;56269;51.738;21.652;2023-04-24T09:08:19;21.23;51.56
69162;DHT22;56269;51.738;21.652;2023-04-24T09:10:45;21.65;50.43
69162;DHT22;56269;51.738;21.652;2023-04-24T09:13:13;21.79;49.53
69162;DHT22;56269;51.738;21.652;2023-04-24T09:15:40;21.55;49.68
69162;DHT22;56269;51.738;21.652;2023-04-24T09:18:07;21.19;48.77
69162;DHT22;56269;51.738;21.652;2023-04-24T09:20:33;20.87;49.76
69162;DHT22;56269;51.738;21.652;2023-04-24T09:23:02;21.47;50.21
69162;DHT22;56269;51.738;21.652;2023-04-24T09:25:34;21.33;48.99
69162;DHT22;56269;51.738;21.652;2023-04-24T09:28:04;21.35;48.64
69162;DHT22;56269;51.738;21.652;2023-04-24T09:30:32;21.75;48.97
69162;DHT22;56269;51.738;21.652;2023-04-24T09:33:14;21.64;48.16
69162;DHT22;56269;51.738;21.652;2023-04-24T09:35:52;21.55;48.33
69162;DHT22;56269;51.738;21.652;2023-04-24T09:38:24;22.29;48.07
69162;DHT22;56269;51.738;21.652;2023-04-24T09:40:59;22.20;47.73
69162;DHT22;56269;51.738;21.652;2023-04-24T09:43:26;22.17;47.21
69162;DHT22;56269;51.738;21.652;2023-04-24T09:45:56;22.26;48.19
69162;DHT22;56269;51.738;21.652;2023-04-24T09:48:32;22.32;48.47
69162;DHT22;56269;51.738;21.652;2023-04-24T09:51:00;22.60;47.51
69162;DHT22;56269;51.738;21.652;2023-04-24T09:53:27;22.08;46.20
69162;DHT22;56269;51.738;21.652;2023-04-24T09:55:53;22.60;47.00
69162;DHT22;56269;51.738;21.652;2023-04-24T09:58:26;22.81;47.12
69162;DHT22;56269;51.738;21.652;2023-04-24T10:00:56;23.08;46.05
69162;DHT22;56269;51.738;21.652;2023-04-24T10:03:26;22.86;46.29
69162;DHT22;56269;51.738;21.652;2023-04-24T10:05:58;22.56;47.37
69162;DHT22;56269;51.738;21.652;2023-04-24T10:08:25;22.80;45.99
69162;DHT22;56269;51.738;21.652;2023-04-24T10:10:52;22.66;46.27
69162;DHT22;56269;51.738;21.652;2023-04-24T10:13:19;22.57;49.39
69162;DHT22;56269;51.738;21.652;2023-04-24T10:15:45;22.50;47.46
69162;DHT22;56269;51.738;21.652;2023-04-24T10:18:15;23.54;46.35
69162;DHT22;56269;51.738;21.652;2023-04-24T10:20:42;23.26;46.13
69162;DHT22;56269;51.738;21.652;2023-04-24T10:23:08;23.72;46.51
69162;DHT22;56269;51.738;21.652;2023-04-24T10:25:35;22.80;45.53
69162;DHT22;56269;51.738;21.652;2023-04-24T10:28:05;22.77;46.82
69162;DHT22;56269;51.738;21.652;2023-04-24T10:30:34;22.35;47.37
69162;DHT22;56269;51.738;21.652;2023-04-24T10:33:04;23.07;47.74
69162;DHT22;56269;51.738;21.652;2023-04-24T10:35:35;23.24;45.97
69162;DHT22;56269;51.738;21.652;2023-04-24T10:38:09;23.00;46.33
69162;DHT22;56269;51.738;21.652;2023-04-24T10:40:37;23.31;47.16
69162;DHT22;56269;51.738;21.652;2023-04-24T10:43:05;23.42;49.02
69162;DHT22;56269;51.738;21.652;2023-04-24T10:45:35;23.97;47.56
69162;DHT22;56269;51.738;21.652;2023-04-24T10:48:08;23.24;46.59
69162;DHT22;56269;51.738;21.652;2023-04-24T10:51:05;23.41;48.15
69162;DHT22;56269;51.738;21.652;2023-04-24T10:53:36;23.37;46.00
69162;DHT22;56269;51.738;21.652;2023-04-24T10:56:05;23.59;46.11
69162;DHT22;56269;51.738;21.652;2023-04-24T10:58:37;23.65;46.03
69162;DHT22;56269;51.738;21.652;2023-04-24T11:01:06;23.38;45.91
69162;DHT22;56269;51.738;21.652;2023-04-24T11:03:33;23.52;46.02
69162;DHT22;56269;51.738;21.652;2023-04-24T11:06:07;23.87;46.44
69162;DHT22;56269;51.738;21.652;2023-04-24T11:08:45;24.13;43.60
69162;DHT22;56269;51.738;21.652;2023-04-24T11:11:12;24.20;43.80
69162;DHT22;56269;51.738;21.652;2023-04-24T11:16:30;24.26;41.90
69162;DHT22;56269;51.738;21.652;2023-04-24T11:19:10;24.24;41.13
69162;DHT22;56269;51.738;21.652;2023-04-24T11:22:02;24.09;41.74
69162;DHT22;56269;51.738;21.652;2023-04-24T11:24:31;23.80;42.13
69162;DHT22;56269;51.738;21.652;2023-04-24T11:32:40;24.58;42.21
69162;DHT22;56269;51.738;21.652;2023-04-24T11:35:20;24.64;39.61
69162;DHT22;56269;51.738;21.652;2023-04-24T11:37:49;25.18;40.62
69162;DHT22;56269;51.738;21.652;2023-04-24T11:40:18;24.37;38.89
69162;DHT22;56269;51.738;21.652;2023-04-24T11:42:51;24.40;39.62
69162;DHT22;56269;51.738;21.652;2023-04-24T11:45:30;23.92;39.60
69162;DHT22;56269;51.738;21.652;2023-04-24T11:47:56;23.66;40.72
69162;DHT22;56269;51.738;21.652;2023-04-24T11:50:25;23.80;39.25
69162;DHT22;56269;51.738;21.652;2023-04-24T11:52:52;24.38;40.29
69162;DHT22;56269;51.738;21.652;2023-04-24T11:57:46;24.89;40.70
69162;DHT22;56269;51.738;21.652;2023-04-24T12:00:18;24.37;37.83
69162;DHT22;56269;51.738;21.652;2023-04-24T12:02:44;24.41;37.69
69162;DHT22;56269;51.738;21.652;2023-04-24T12:05:22;24.54;38.89
69162;DHT22;56269;51.738;21.652;2023-04-24T12:07:49;24.91;38.40
69162;DHT22;56269;51.738;21.652;2023-04-24T12:10:23;24.64;37.82
69162;DHT22;56269;51.738;21.652;2023-04-24T12:12:50;24.12;38.02
69162;DHT22;56269;51.738;21.652;2023-04-24T12:15:18;24.02;37.19
69162;DHT22;56269;51.738;21.652;2023-04-24T12:17:45;24.10;38.85
69162;DHT22;56269;51.738;21.652;2023-04-24T12:20:12;23.73;37.17
69162;DHT22;56269;51.738;21.652;2023-04-24T12:22:50;23.67;38.28
69162;DHT22;56269;51.738;21.652;2023-04-24T12:25:18;23.80;38.63
69162;DHT22;56269;51.738;21.652;2023-04-24T12:27:45;23.92;38.01
69162;DHT22;56269;51.738;21.652;2023-04-24T12:30:16;23.59;35.84
69162;DHT22;56269;51.738;21.652;2023-04-24T12:32:43;23.95;36.97
69162;DHT22;56269;51.738;21.652;2023-04-24T12:35:11;24.00;36.65
69162;DHT22;56269;51.738;21.652;2023-04-24T12:37:37;24.41;38.44
69162;DHT22;56269;51.738;21.652;2023-04-24T12:40:12;24.77;37.66
69162;DHT22;56269;51.738;21.652;2023-04-24T12:42:57;25.07;36.27
69162;DHT22;56269;51.738;21.652;2023-04-24T12:45:23;24.75;35.53
69162;DHT22;56269;51.738;21.652;2023-04-24T12:47:51;24.89;35.61
69162;DHT22;56269;51.738;21.652;2023-04-24T12:50:17;24.53;36.73
69162;DHT22;56269;51.738;21.652;2023-04-24T12:52:43;24.24;35.91
69162;DHT22;56269;51.738;21.652;2023-04-24T12:55:10;24.17;35.93
69162;DHT22;56269;51.738;21.652;2023-04-24T12:57:38;24.88;36.36
69162;DHT22;56269;51.738;21.652;2023-04-24T13:00:06;24.41;37.30
69162;DHT22;56269;51.738;21.652;2023-04-24T13:02:33;24.18;37.53
69162;DHT22;56269;51.738;21.652;2023-04-24T13:05:00;24.56;36.86
69162;DHT22;56269;51.738;21.652;2023-04-24T13:07:27;24.56;36.98
69162;DHT22;56269;51.738;21.652;2023-04-24T13:09:54;24.36;36.81
69162;DHT22;56269;51.738;21.652;2023-04-24T13:12:20;24.38;34.30
69162;DHT22;56269;51.738;21.652;2023-04-24T13:14:47;24.41;34.54
69162;DHT22;56269;51.738;21.652;2023-04-24T13:17:14;24.40;36.09
69162;DHT22;56269;51.738;21.652;2023-04-24T13:19:42;24.34;35.36
69162;DHT22;56269;51.738;21.652;2023-04-24T13:22:10;24.31;32.10
69162;DHT22;56269;51.738;21.652;2023-04-24T13:24:37;24.77;34.94
69162;DHT22;56269;51.738;21.652;2023-04-24T13:27:04;24.48;33.96
69162;DHT22;56269;51.738;21.652;2023-04-24T13:29:30;24.24;34.32
69162;DHT22;56269;51.738;21.652;2023-04-24T13:31:56;24.21;33.10
69162;DHT22;56269;51.738;21.652;2023-04-24T13:34:24;24.05;33.80
69162;DHT22;56269;51.738;21.652;2023-04-24T13:36:56;24.50;34.21
69162;DHT22;56269;51.738;21.652;2023-04-24T13:39:23;24.95;34.71
69162;DHT22;56269;51.738;21.652;2023-04-24T13:41:49;25.36;35.63
69162;DHT22;56269;51.738;21.652;2023-04-24T13:44:17;23.70;36.23
69162;DHT22;56269;51.738;21.652;2023-04-24T13:46:44;22.43;38.93
69162;DHT22;56269;51.738;21.652;2023-04-24T13:49:12;22.09;40.49
69162;DHT22;56269;51.738;21.652;2023-04-24T13:51:39;21.68;40.26
69162;DHT22;56269;51.738;21.652;2023-04-24T13:54:06;21.91;40.60
69162;DHT22;56269;51.738;21.652;2023-04-24T13:56:32;22.35;38.85
69162;DHT22;56269;51.738;21.652;2023-04-24T13:58:58;22.73;36.67
69162;DHT22;56269;51.738;21.652;2023-04-24T14:01:24;22.97;37.02
69162;DHT22;56269;51.738;21.652;2023-04-24T14:03:52;23.73;38.07
69162;DHT22;56269;51.738;21.652;2023-04-24T14:06:18;23.45;36.19
69162;DHT22;56269;51.738;21.652;2023-04-24T14:08:45;22.61;37.05
69162;DHT22;56269;51.738;21.652;2023-04-24T14:11:11;22.01;37.17
69162;DHT22;56269;51.738;21.652;2023-04-24T14:13:39;22.05;40.31
69162;DHT22;56269;51.738;21.652;2023-04-24T14:16:06;21.79;38.81
69162;DHT22;56269;51.738;21.652;2023-04-24T14:18:33;21.71;39.90
69162;DHT22;56269;51.738;21.652;2023-04-24T14:20:59;21.59;39.64
69162;DHT22;56269;51.738;21.652;2023-04-24T14:23:27;21.45;39.56
69162;DHT22;56269;51.738;21.652;2023-04-24T14:25:53;21.45;40.55
69162;DHT22;56269;51.738;21.652;2023-04-24T14:28:20;21.38;41.19
69162;DHT22;56269;51.738;21.652;2023-04-24T14:30:47;21.24;39.64
69162;DHT22;56269;51.738;21.652;2023-04-24T14:33:14;21.21;39.17
69162;DHT22;56269;51.738;21.652;2023-04-24T14:35:41;21.07;39.54
69162;DHT22;56269;51.738;21.652;2023-04-24T14:38:10;20.99;40.39
69162;DHT22;56269;51.738;21.652;2023-04-24T14:40:37;20.89;40.01
69162;DHT22;56269;51.738;21.652;2023-04-24T14:43:03;20.94;40.41
69162;DHT22;56269;51.738;21.652;2023-04-24T14:45:30;20.92;39.55
69162;DHT22;56269;51.738;21.652;2023-04-24T14:47:57;20.90;37.94
69162;DHT22;56269;51.738;21.652;2023-04-24T14:50:23;20.92;40.09
69162;DHT22;56269;51.738;21.652;2023-04-24T14:52:54;21.01;39.79
69162;DHT22;56269;51.738;21.652;2023-04-24T14:55:23;21.03;38.73
69162;DHT22;56269;51.738;21.652;2023-04-24T14:57:50;21.04;40.15
69162;DHT22;56269;51.738;21.652;2023-04-24T15:00:17;21.38;39.65
69162;DHT22;56269;51.738;21.652;2023-04-24T15:02:43;21.58;39.44
69162;DHT22;56269;51.738;21.652;2023-04-24T15:05:10;21.66;39.96
69162;DHT22;56269;51.738;21.652;2023-04-24T15:07:38;21.61;38.67
69162;DHT22;56269;51.738;21.652;2023-04-24T15:10:05;22.17;37.51
69162;DHT22;56269;51.738;21.652;2023-04-24T15:12:31;22.53;37.53
69162;DHT22;56269;51.738;21.652;2023-04-24T15:14:58;22.44;35.39
69162;DHT22;56269;51.738;21.652;2023-04-24T15:17:26;22.35;36.08
69162;DHT22;56269;51.738;21.652;2023-04-24T15:19:52;22.32;37.10
69162;DHT22;56269;51.738;21.652;2023-04-24T15:22:18;22.36;37.85
69162;DHT22;56269;51.738;21.652;2023-04-24T15:24:44;22.29;37.65
69162;DHT22;56269;51.738;21.652;2023-04-24T15:27:11;22.33;35.84
69162;DHT22;56269;51.738;21.652;2023-04-24T15:29:37;22.17;36.76
69162;DHT22;56269;51.738;21.652;2023-04-24T15:32:03;22.29;38.17